KAPY

Zapata County Airport

Zapata, Texas, USA
METAR KAPY 181455Z AUTO 33004KT 4SM BR SCT016 OVC025 01/M01 A3053 RMK AO2 T00141010
Observed Flight Rules
Jan-18 @ 14:55 UTC (26 minutes ago) Marginal Visual Flight Rules
Wind Visibility Clouds Conditions
330° at 4 knots 4 miles
  • Scattered at 1,600' AGL
  • Overcast at 2,500' AGL
  • Mist
Temperatures Readings
Current 1°C / 34°F
Dewpoint -1°C / 30°F
Humidity 87%
Altimeter 30.53" Hg
Pressure 1034 hPa
Elevation 129
METAR KAPY 181455Z AUTO 33004KT 4SM BR SCT016 OVC025 01/M01 A3053 RMK AO2 T00141010
Observed Flight Rules
Jan-18 @ 14:55 UTC
(26 minutes ago)
MVFR
Wind Visibility
330° at 4 knots 4 miles
Clouds
  • Scattered at 1,600' AGL
  • Overcast at 2,500' AGL
Conditions
  • Mist
Temperature Dewpoint
1°C / 34°F -1°C / 30°F
Humidity Altimeter Pressure
87% 30.53" Hg 1034 hPa